sensor_id;sensor_type;location;lat;lon;timestamp;pressure;altitude;pressure_sealevel;temperature;humidity
66381;BME280;53177;52.648;1.214;2023-04-23T00:01:14;99897.72;;;9.15;80.02
66381;BME280;53177;52.648;1.214;2023-04-23T00:03:42;99893.22;;;9.19;80.86
66381;BME280;53177;52.648;1.214;2023-04-23T00:06:08;99884.44;;;9.18;80.25
66381;BME280;53177;52.648;1.214;2023-04-23T00:08:40;99886.88;;;9.24;80.16
66381;BME280;53177;52.648;1.214;2023-04-23T00:11:07;99885.19;;;9.23;80.69
66381;BME280;53177;52.648;1.214;2023-04-23T00:13:33;99880.22;;;9.13;81.51
66381;BME280;53177;52.648;1.214;2023-04-23T00:15:59;99882.28;;;9.03;82.18
66381;BME280;53177;52.648;1.214;2023-04-23T00:18:24;99877.88;;;9.04;82.13
66381;BME280;53177;52.648;1.214;2023-04-23T00:20:50;99873.50;;;9.03;82.26
66381;BME280;53177;52.648;1.214;2023-04-23T00:23:15;99872.59;;;9.04;82.70
66381;BME280;53177;52.648;1.214;2023-04-23T00:25:41;99868.22;;;9.03;82.08
66381;BME280;53177;52.648;1.214;2023-04-23T00:28:06;99868.09;;;9.07;82.50
66381;BME280;53177;52.648;1.214;2023-04-23T00:30:32;99865.44;;;9.07;82.34
66381;BME280;53177;52.648;1.214;2023-04-23T00:32:57;99858.41;;;9.08;82.62
66381;BME280;53177;52.648;1.214;2023-04-23T00:35:23;99855.00;;;9.04;82.51
66381;BME280;53177;52.648;1.214;2023-04-23T00:37:48;99856.56;;;9.10;82.69
66381;BME280;53177;52.648;1.214;2023-04-23T00:40:14;99851.38;;;9.07;83.55
66381;BME280;53177;52.648;1.214;2023-04-23T00:42:39;99852.25;;;9.07;82.97
66381;BME280;53177;52.648;1.214;2023-04-23T00:45:06;99847.19;;;9.01;83.53
66381;BME280;53177;52.648;1.214;2023-04-23T00:47:33;99843.53;;;9.05;84.08
66381;BME280;53177;52.648;1.214;2023-04-23T00:49:59;99842.91;;;8.97;85.00
66381;BME280;53177;52.648;1.214;2023-04-23T00:52:24;99835.69;;;9.02;84.21
66381;BME280;53177;52.648;1.214;2023-04-23T00:54:50;99840.41;;;8.93;85.13
66381;BME280;53177;52.648;1.214;2023-04-23T00:57:15;99825.56;;;8.90;85.23
66381;BME280;53177;52.648;1.214;2023-04-23T00:59:41;99822.03;;;8.90;85.56
66381;BME280;53177;52.648;1.214;2023-04-23T01:02:07;99819.44;;;8.88;85.12
66381;BME280;53177;52.648;1.214;2023-04-23T01:04:33;99815.16;;;8.84;86.14
66381;BME280;53177;52.648;1.214;2023-04-23T01:07:00;99812.63;;;8.81;86.76
66381;BME280;53177;52.648;1.214;2023-04-23T01:09:26;99811.88;;;8.77;87.43
66381;BME280;53177;52.648;1.214;2023-04-23T01:11:56;99810.00;;;8.81;86.74
66381;BME280;53177;52.648;1.214;2023-04-23T01:14:22;99800.22;;;8.85;86.66
66381;BME280;53177;52.648;1.214;2023-04-23T01:16:50;99798.47;;;8.84;87.24
66381;BME280;53177;52.648;1.214;2023-04-23T01:19:16;99789.78;;;8.82;87.39
66381;BME280;53177;52.648;1.214;2023-04-23T01:21:42;99789.88;;;8.78;88.16
66381;BME280;53177;52.648;1.214;2023-04-23T01:24:09;99787.38;;;8.74;88.35
66381;BME280;53177;52.648;1.214;2023-04-23T01:26:34;99789.97;;;8.75;88.61
66381;BME280;53177;52.648;1.214;2023-04-23T01:29:00;99781.91;;;8.80;88.13
66381;BME280;53177;52.648;1.214;2023-04-23T01:31:29;99789.81;;;8.80;88.68
66381;BME280;53177;52.648;1.214;2023-04-23T01:33:55;99789.78;;;8.82;88.88
66381;BME280;53177;52.648;1.214;2023-04-23T01:36:22;99791.63;;;8.78;88.95
66381;BME280;53177;52.648;1.214;2023-04-23T01:38:48;99775.97;;;8.73;89.78
66381;BME280;53177;52.648;1.214;2023-04-23T01:41:13;99779.44;;;8.75;89.47
66381;BME280;53177;52.648;1.214;2023-04-23T01:43:40;99772.22;;;8.80;89.75
66381;BME280;53177;52.648;1.214;2023-04-23T01:46:06;99773.22;;;8.76;90.53
66381;BME280;53177;52.648;1.214;2023-04-23T01:48:32;99768.00;;;8.75;90.58
66381;BME280;53177;52.648;1.214;2023-04-23T01:50:58;99774.09;;;8.77;90.64
66381;BME280;53177;52.648;1.214;2023-04-23T01:53:24;99770.50;;;8.79;90.99
66381;BME280;53177;52.648;1.214;2023-04-23T01:55:50;99767.06;;;8.77;91.11
66381;BME280;53177;52.648;1.214;2023-04-23T01:58:16;99763.31;;;8.85;90.94
66381;BME280;53177;52.648;1.214;2023-04-23T02:00:42;99759.69;;;8.89;90.84
66381;BME280;53177;52.648;1.214;2023-04-23T02:03:07;99761.41;;;8.90;91.15
66381;BME280;53177;52.648;1.214;2023-04-23T02:05:34;99759.78;;;8.86;91.64
66381;BME280;53177;52.648;1.214;2023-04-23T02:08:00;99756.38;;;8.82;91.96
66381;BME280;53177;52.648;1.214;2023-04-23T02:10:26;99752.91;;;8.80;91.88
66381;BME280;53177;52.648;1.214;2023-04-23T02:12:51;99757.25;;;8.83;92.60
66381;BME280;53177;52.648;1.214;2023-04-23T02:15:17;99752.84;;;8.83;92.95
66381;BME280;53177;52.648;1.214;2023-04-23T02:17:44;99744.09;;;8.81;93.31
66381;BME280;53177;52.648;1.214;2023-04-23T02:20:10;99745.00;;;8.80;94.03
66381;BME280;53177;52.648;1.214;2023-04-23T02:22:37;99747.34;;;8.89;93.99
66381;BME280;53177;52.648;1.214;2023-04-23T02:25:05;99741.22;;;8.89;93.78
66381;BME280;53177;52.648;1.214;2023-04-23T02:27:31;99742.94;;;8.90;94.24
66381;BME280;53177;52.648;1.214;2023-04-23T02:29:57;99742.84;;;8.93;94.77
66381;BME280;53177;52.648;1.214;2023-04-23T02:32:23;99743.72;;;8.93;94.98
66381;BME280;53177;52.648;1.214;2023-04-23T02:34:48;99737.63;;;8.91;94.68
66381;BME280;53177;52.648;1.214;2023-04-23T02:37:13;99744.63;;;8.92;95.06
66381;BME280;53177;52.648;1.214;2023-04-23T02:39:39;99740.25;;;8.91;95.78
66381;BME280;53177;52.648;1.214;2023-04-23T02:42:04;99741.25;;;8.87;96.79
66381;BME280;53177;52.648;1.214;2023-04-23T02:44:29;99746.47;;;8.90;96.72
66381;BME280;53177;52.648;1.214;2023-04-23T02:46:55;99742.19;;;8.86;97.37
66381;BME280;53177;52.648;1.214;2023-04-23T02:49:20;99736.91;;;8.86;97.11
66381;BME280;53177;52.648;1.214;2023-04-23T02:51:46;99739.44;;;8.89;96.67
66381;BME280;53177;52.648;1.214;2023-04-23T02:54:11;99725.28;;;8.92;96.81
66381;BME280;53177;52.648;1.214;2023-04-23T02:56:37;99730.63;;;8.90;97.24
66381;BME280;53177;52.648;1.214;2023-04-23T02:59:03;99729.69;;;8.91;97.25
66381;BME280;53177;52.648;1.214;2023-04-23T03:01:28;99730.53;;;8.93;97.36
66381;BME280;53177;52.648;1.214;2023-04-23T03:03:54;99729.56;;;8.96;97.96
66381;BME280;53177;52.648;1.214;2023-04-23T03:06:19;99729.56;;;8.96;97.67
66381;BME280;53177;52.648;1.214;2023-04-23T03:08:45;99717.09;;;9.01;97.81
66381;BME280;53177;52.648;1.214;2023-04-23T03:11:10;99718.81;;;9.02;97.80
66381;BME280;53177;52.648;1.214;2023-04-23T03:13:36;99708.13;;;9.06;97.60
66381;BME280;53177;52.648;1.214;2023-04-23T03:16:01;99707.34;;;9.03;98.30
66381;BME280;53177;52.648;1.214;2023-04-23T03:18:27;99704.72;;;9.03;98.38
66381;BME280;53177;52.648;1.214;2023-04-23T03:20:52;99705.56;;;9.05;98.58
66381;BME280;53177;52.648;1.214;2023-04-23T03:23:18;99703.78;;;9.05;98.98
66381;BME280;53177;52.648;1.214;2023-04-23T03:25:43;99708.13;;;9.06;99.52
66381;BME280;53177;52.648;1.214;2023-04-23T03:28:08;99695.00;;;9.05;99.84
66381;BME280;53177;52.648;1.214;2023-04-23T03:30:34;99702.91;;;9.05;99.50
66381;BME280;53177;52.648;1.214;2023-04-23T03:32:59;99697.56;;;9.06;99.51
66381;BME280;53177;52.648;1.214;2023-04-23T03:35:26;99698.34;;;9.10;100.00
66381;BME280;53177;52.648;1.214;2023-04-23T03:37:51;99688.59;;;9.12;100.00
66381;BME280;53177;52.648;1.214;2023-04-23T03:40:18;99691.19;;;9.13;100.00
66381;BME280;53177;52.648;1.214;2023-04-23T03:42:43;99687.63;;;9.14;100.00
66381;BME280;53177;52.648;1.214;2023-04-23T03:45:09;99684.88;;;9.17;100.00
66381;BME280;53177;52.648;1.214;2023-04-23T03:47:35;99686.59;;;9.20;100.00
66381;BME280;53177;52.648;1.214;2023-04-23T03:50:01;99689.13;;;9.23;100.00
66381;BME280;53177;52.648;1.214;2023-04-23T03:52:26;99687.34;;;9.23;100.00
66381;BME280;53177;52.648;1.214;2023-04-23T03:54:52;99681.09;;;9.26;100.00
66381;BME280;53177;52.648;1.214;2023-04-23T03:57:19;99685.50;;;9.25;100.00
66381;BME280;53177;52.648;1.214;2023-04-23T03:59:45;99677.81;;;9.19;100.00
66381;BME280;53177;52.648;1.214;2023-04-23T04:02:10;99682.09;;;9.22;100.00
66381;BME280;53177;52.648;1.214;2023-04-23T04:04:35;99687.38;;;9.22;100.00
66381;BME280;53177;52.648;1.214;2023-04-23T04:07:01;99687.50;;;9.19;100.00
66381;BME280;53177;52.648;1.214;2023-04-23T04:09:29;99684.78;;;9.20;100.00
66381;BME280;53177;52.648;1.214;2023-04-23T04:11:57;99681.13;;;9.24;100.00
66381;BME280;53177;52.648;1.214;2023-04-23T04:14:29;99685.50;;;9.25;100.00
66381;BME280;53177;52.648;1.214;2023-04-23T04:16:56;99684.69;;;9.23;100.00
66381;BME280;53177;52.648;1.214;2023-04-23T04:19:22;99674.91;;;9.27;100.00
66381;BME280;53177;52.648;1.214;2023-04-23T04:21:52;99668.75;;;9.26;100.00
66381;BME280;53177;52.648;1.214;2023-04-23T04:24:24;99665.19;;;9.27;100.00
66381;BME280;53177;52.648;1.214;2023-04-23T04:26:50;99675.75;;;9.27;100.00
66381;BME280;53177;52.648;1.214;2023-04-23T04:29:17;99671.28;;;9.29;100.00
66381;BME280;53177;52.648;1.214;2023-04-23T04:31:42;99668.63;;;9.31;100.00
66381;BME280;53177;52.648;1.214;2023-04-23T04:34:07;99672.03;;;9.33;100.00
66381;BME280;53177;52.648;1.214;2023-04-23T04:36:34;99667.69;;;9.32;100.00
66381;BME280;53177;52.648;1.214;2023-04-23T04:39:00;99673.94;;;9.29;100.00
66381;BME280;53177;52.648;1.214;2023-04-23T04:41:25;99671.25;;;9.31;100.00
66381;BME280;53177;52.648;1.214;2023-04-23T04:43:52;99672.19;;;9.28;100.00
66381;BME280;53177;52.648;1.214;2023-04-23T04:46:19;99672.28;;;9.27;100.00
66381;BME280;53177;52.648;1.214;2023-04-23T04:48:45;99673.97;;;9.28;100.00
66381;BME280;53177;52.648;1.214;2023-04-23T04:51:10;99675.91;;;9.23;100.00
66381;BME280;53177;52.648;1.214;2023-04-23T04:53:36;99668.88;;;9.23;100.00
66381;BME280;53177;52.648;1.214;2023-04-23T04:56:01;99667.91;;;9.26;100.00
66381;BME280;53177;52.648;1.214;2023-04-23T04:58:27;99659.97;;;9.26;100.00
66381;BME280;53177;52.648;1.214;2023-04-23T05:00:52;99664.34;;;9.27;100.00
66381;BME280;53177;52.648;1.214;2023-04-23T05:03:20;99667.03;;;9.25;100.00
66381;BME280;53177;52.648;1.214;2023-04-23T05:05:45;99660.88;;;9.25;100.00
66381;BME280;53177;52.648;1.214;2023-04-23T05:08:13;99654.63;;;9.27;100.00
66381;BME280;53177;52.648;1.214;2023-04-23T05:10:42;99656.38;;;9.28;100.00
66381;BME280;53177;52.648;1.214;2023-04-23T05:13:08;99656.44;;;9.27;100.00
66381;BME280;53177;52.648;1.214;2023-04-23T05:15:34;99651.16;;;9.27;100.00
66381;BME280;53177;52.648;1.214;2023-04-23T05:18:01;99644.16;;;9.26;100.00
66381;BME280;53177;52.648;1.214;2023-04-23T05:20:27;99647.59;;;9.28;100.00
66381;BME280;53177;52.648;1.214;2023-04-23T05:22:52;99648.41;;;9.30;100.00
66381;BME280;53177;52.648;1.214;2023-04-23T05:25:18;99643.13;;;9.30;100.00
66381;BME280;53177;52.648;1.214;2023-04-23T05:27:43;99648.31;;;9.33;100.00
66381;BME280;53177;52.648;1.214;2023-04-23T05:30:09;99646.47;;;9.35;100.00
66381;BME280;53177;52.648;1.214;2023-04-23T05:32:35;99649.09;;;9.35;100.00
66381;BME280;53177;52.648;1.214;2023-04-23T05:35:01;99647.22;;;9.39;100.00
66381;BME280;53177;52.648;1.214;2023-04-23T05:37:28;99648.94;;;9.40;100.00
66381;BME280;53177;52.648;1.214;2023-04-23T05:39:53;99647.16;;;9.40;100.00
66381;BME280;53177;52.648;1.214;2023-04-23T05:42:20;99640.16;;;9.39;100.00
66381;BME280;53177;52.648;1.214;2023-04-23T05:44:45;99648.03;;;9.41;100.00
66381;BME280;53177;52.648;1.214;2023-04-23T05:47:12;99645.25;;;9.45;100.00
66381;BME280;53177;52.648;1.214;2023-04-23T05:49:38;99646.13;;;9.46;100.00
66381;BME280;53177;52.648;1.214;2023-04-23T05:52:03;99644.31;;;9.46;100.00
66381;BME280;53177;52.648;1.214;2023-04-23T05:54:29;99638.88;;;9.51;100.00
66381;BME280;53177;52.648;1.214;2023-04-23T05:56:54;99638.09;;;9.49;100.00
66381;BME280;53177;52.648;1.214;2023-04-23T05:59:20;99638.94;;;9.49;100.00
66381;BME280;53177;52.648;1.214;2023-04-23T06:01:46;99638.88;;;9.51;100.00
66381;BME280;53177;52.648;1.214;2023-04-23T06:04:13;99639.75;;;9.51;100.00
66381;BME280;53177;52.648;1.214;2023-04-23T06:06:38;99642.22;;;9.56;100.00
66381;BME280;53177;52.648;1.214;2023-04-23T06:09:04;99639.50;;;9.57;100.00
66381;BME280;53177;52.648;1.214;2023-04-23T06:11:30;99635.97;;;9.58;100.00
66381;BME280;53177;52.648;1.214;2023-04-23T06:13:57;99631.44;;;9.62;100.00
66381;BME280;53177;52.648;1.214;2023-04-23T06:16:23;99635.75;;;9.64;100.00
66381;BME280;53177;52.648;1.214;2023-04-23T06:18:48;99627.72;;;9.67;100.00
66381;BME280;53177;52.648;1.214;2023-04-23T06:21:14;99627.59;;;9.70;100.00
66381;BME280;53177;52.648;1.214;2023-04-23T06:23:40;99625.75;;;9.72;100.00
66381;BME280;53177;52.648;1.214;2023-04-23T06:26:05;99630.00;;;9.76;100.00
66381;BME280;53177;52.648;1.214;2023-04-23T06:28:30;99625.47;;;9.80;100.00
66381;BME280;53177;52.648;1.214;2023-04-23T06:30:56;99633.25;;;9.85;100.00
66381;BME280;53177;52.648;1.214;2023-04-23T06:33:21;99629.59;;;9.87;100.00
66381;BME280;53177;52.648;1.214;2023-04-23T06:35:46;99632.16;;;9.90;100.00
66381;BME280;53177;52.648;1.214;2023-04-23T06:38:12;99630.31;;;9.92;100.00
66381;BME280;53177;52.648;1.214;2023-04-23T06:40:38;99630.25;;;9.94;100.00
66381;BME280;53177;52.648;1.214;2023-04-23T06:43:03;99632.81;;;9.95;100.00
66381;BME280;53177;52.648;1.214;2023-04-23T06:45:30;99632.72;;;9.98;99.87
66381;BME280;53177;52.648;1.214;2023-04-23T06:47:56;99635.31;;;10.00;99.67
66381;BME280;53177;52.648;1.214;2023-04-23T06:50:22;99628.09;;;10.05;99.93
66381;BME280;53177;52.648;1.214;2023-04-23T06:52:47;99628.88;;;10.07;99.76
66381;BME280;53177;52.648;1.214;2023-04-23T06:55:13;99631.47;;;10.08;99.14
66381;BME280;53177;52.648;1.214;2023-04-23T06:57:38;99623.31;;;10.14;98.39
66381;BME280;53177;52.648;1.214;2023-04-23T07:00:04;99622.28;;;10.18;97.51
66381;BME280;53177;52.648;1.214;2023-04-23T07:02:34;99619.34;;;10.26;97.86
66381;BME280;53177;52.648;1.214;2023-04-23T07:05:00;99614.00;;;10.27;97.03
66381;BME280;53177;52.648;1.214;2023-04-23T07:07:25;99612.94;;;10.32;96.91
66381;BME280;53177;52.648;1.214;2023-04-23T07:09:51;99615.56;;;10.33;96.82
66381;BME280;53177;52.648;1.214;2023-04-23T07:12:16;99617.88;;;10.41;96.70
66381;BME280;53177;52.648;1.214;2023-04-23T07:14:42;99615.06;;;10.45;96.09
66381;BME280;53177;52.648;1.214;2023-04-23T07:17:07;99615.81;;;10.49;95.07
66381;BME280;53177;52.648;1.214;2023-04-23T07:19:33;99615.72;;;10.50;95.20
66381;BME280;53177;52.648;1.214;2023-04-23T07:21:58;99615.59;;;10.53;95.40
66381;BME280;53177;52.648;1.214;2023-04-23T07:24:24;99615.44;;;10.58;94.84
66381;BME280;53177;52.648;1.214;2023-04-23T07:26:50;99612.59;;;10.62;94.51
66381;BME280;53177;52.648;1.214;2023-04-23T07:29:16;99611.75;;;10.62;94.62
66381;BME280;53177;52.648;1.214;2023-04-23T07:31:41;99608.06;;;10.66;94.15
66381;BME280;53177;52.648;1.214;2023-04-23T07:34:07;99616.91;;;10.65;93.61
66381;BME280;53177;52.648;1.214;2023-04-23T07:36:34;99618.69;;;10.64;93.57
66381;BME280;53177;52.648;1.214;2023-04-23T07:38:59;99618.63;;;10.66;94.00
66381;BME280;53177;52.648;1.214;2023-04-23T07:41:25;99618.56;;;10.67;93.49
66381;BME280;53177;52.648;1.214;2023-04-23T07:43:50;99623.56;;;10.75;92.90
66381;BME280;53177;52.648;1.214;2023-04-23T07:46:16;99620.22;;;10.70;92.23
66381;BME280;53177;52.648;1.214;2023-04-23T07:48:41;99616.09;;;10.63;90.74
66381;BME280;53177;52.648;1.214;2023-04-23T07:51:07;99628.28;;;10.67;91.74
66381;BME280;53177;52.648;1.214;2023-04-23T07:53:33;99620.97;;;10.73;91.48
66381;BME280;53177;52.648;1.214;2023-04-23T07:55:59;99626.06;;;10.78;91.15
66381;BME280;53177;52.648;1.214;2023-04-23T07:58:24;99629.63;;;10.77;90.78
66381;BME280;53177;52.648;1.214;2023-04-23T08:00:50;99629.81;;;10.72;89.79
66381;BME280;53177;52.648;1.214;2023-04-23T08:03:15;99624.22;;;10.80;90.24
66381;BME280;53177;52.648;1.214;2023-04-23T08:05:41;99612.53;;;10.86;89.07
66381;BME280;53177;52.648;1.214;2023-04-23T08:08:07;99627.72;;;10.81;87.79
66381;BME280;53177;52.648;1.214;2023-04-23T08:10:35;99622.25;;;10.85;87.18
66381;BME280;53177;52.648;1.214;2023-04-23T08:13:01;99618.59;;;10.88;86.00
66381;BME280;53177;52.648;1.214;2023-04-23T08:15:27;99622.97;;;10.89;86.61
66381;BME280;53177;52.648;1.214;2023-04-23T08:17:52;99622.09;;;10.88;86.68
66381;BME280;53177;52.648;1.214;2023-04-23T08:20:17;99622.09;;;10.88;86.28
66381;BME280;53177;52.648;1.214;2023-04-23T08:22:43;99623.72;;;10.92;86.06
66381;BME280;53177;52.648;1.214;2023-04-23T08:25:09;99624.50;;;10.94;86.36
66381;BME280;53177;52.648;1.214;2023-04-23T08:27:34;99616.63;;;10.93;85.29
66381;BME280;53177;52.648;1.214;2023-04-23T08:29:59;99625.03;;;11.02;86.00
66381;BME280;53177;52.648;1.214;2023-04-23T08:32:25;99623.84;;;11.09;84.80
66381;BME280;53177;52.648;1.214;2023-04-23T08:34:50;99627.16;;;11.14;85.14
66381;BME280;53177;52.648;1.214;2023-04-23T08:37:16;99622.41;;;11.22;84.39
66381;BME280;53177;52.648;1.214;2023-04-23T08:39:41;99624.50;;;11.35;84.76
66381;BME280;53177;52.648;1.214;2023-04-23T08:42:10;99628.50;;;11.45;83.88
66381;BME280;53177;52.648;1.214;2023-04-23T08:44:40;99625.59;;;11.51;84.49
66381;BME280;53177;52.648;1.214;2023-04-23T08:47:09;99631.16;;;11.45;82.86
66381;BME280;53177;52.648;1.214;2023-04-23T08:49:39;99625.38;;;11.35;82.50
66381;BME280;53177;52.648;1.214;2023-04-23T08:52:16;99631.59;;;11.14;82.37
66381;BME280;53177;52.648;1.214;2023-04-23T08:54:49;99633.66;;;11.07;82.27
66381;BME280;53177;52.648;1.214;2023-04-23T08:57:15;99622.25;;;11.05;82.38
66381;BME280;53177;52.648;1.214;2023-04-23T08:59:42;99630.91;;;11.09;82.29
66381;BME280;53177;52.648;1.214;2023-04-23T09:02:08;99630.38;;;11.22;82.41
66381;BME280;53177;52.648;1.214;2023-04-23T09:04:37;99637.22;;;11.47;81.27
66381;BME280;53177;52.648;1.214;2023-04-23T09:07:03;99625.31;;;11.77;81.47
66381;BME280;53177;52.648;1.214;2023-04-23T09:09:29;99628.19;;;11.91;80.27
66381;BME280;53177;52.648;1.214;2023-04-23T09:11:55;99619.69;;;12.03;78.90
66381;BME280;53177;52.648;1.214;2023-04-23T09:14:24;99621.28;;;12.07;78.13
66381;BME280;53177;52.648;1.214;2023-04-23T09:16:50;99619.19;;;11.95;77.73
66381;BME280;53177;52.648;1.214;2023-04-23T09:19:17;99616.31;;;11.81;77.55
66381;BME280;53177;52.648;1.214;2023-04-23T09:21:44;99617.09;;;11.83;77.63
66381;BME280;53177;52.648;1.214;2023-04-23T09:24:11;99615.03;;;11.90;78.23
66381;BME280;53177;52.648;1.214;2023-04-23T09:26:45;99615.16;;;12.05;77.42
66381;BME280;53177;52.648;1.214;2023-04-23T09:29:19;99610.94;;;12.01;75.48
66381;BME280;53177;52.648;1.214;2023-04-23T09:31:49;99609.97;;;12.04;76.48
66381;BME280;53177;52.648;1.214;2023-04-23T09:34:20;99605.53;;;12.23;75.03
66381;BME280;53177;52.648;1.214;2023-04-23T09:36:47;99602.00;;;12.41;74.07
66381;BME280;53177;52.648;1.214;2023-04-23T09:39:22;99592.56;;;12.53;73.16
66381;BME280;53177;52.648;1.214;2023-04-23T09:41:50;99604.34;;;12.47;72.46
66381;BME280;53177;52.648;1.214;2023-04-23T09:44:17;99596.09;;;12.35;72.66
66381;BME280;53177;52.648;1.214;2023-04-23T09:46:43;99599.00;;;12.30;73.74
66381;BME280;53177;52.648;1.214;2023-04-23T09:49:10;99602.41;;;12.32;73.58
66381;BME280;53177;52.648;1.214;2023-04-23T09:51:43;99604.16;;;12.33;73.67
66381;BME280;53177;52.648;1.214;2023-04-23T09:54:18;99604.56;;;12.24;74.32
66381;BME280;53177;52.648;1.214;2023-04-23T09:56:48;99594.94;;;12.23;74.15
66381;BME280;53177;52.648;1.214;2023-04-23T09:59:22;99593.97;;;12.24;74.00
66381;BME280;53177;52.648;1.214;2023-04-23T10:01:48;99598.50;;;12.22;74.41
66381;BME280;53177;52.648;1.214;2023-04-23T10:04:20;99595.63;;;12.27;75.08
66381;BME280;53177;52.648;1.214;2023-04-23T10:06:54;99588.81;;;12.40;76.43
66381;BME280;53177;52.648;1.214;2023-04-23T10:09:23;99596.75;;;12.40;76.14
66381;BME280;53177;52.648;1.214;2023-04-23T10:11:56;99587.88;;;12.41;76.30
66381;BME280;53177;52.648;1.214;2023-04-23T10:14:23;99592.09;;;12.45;74.58
66381;BME280;53177;52.648;1.214;2023-04-23T10:16:56;99587.50;;;12.48;74.78
66381;BME280;53177;52.648;1.214;2023-04-23T10:19:23;99588.78;;;13.29;73.15
66381;BME280;53177;52.648;1.214;2023-04-23T10:21:53;99588.31;;;13.86;72.97
66381;BME280;53177;52.648;1.214;2023-04-23T10:24:22;99573.88;;;14.23;70.54
66381;BME280;53177;52.648;1.214;2023-04-23T10:26:52;99574.13;;;14.03;68.70
66381;BME280;53177;52.648;1.214;2023-04-23T10:29:25;99584.50;;;13.59;70.29
66381;BME280;53177;52.648;1.214;2023-04-23T10:32:02;99570.81;;;13.34;69.76
66381;BME280;53177;52.648;1.214;2023-04-23T10:34:30;99571.06;;;14.10;68.60
66381;BME280;53177;52.648;1.214;2023-04-23T10:36:57;99568.66;;;14.53;66.88
66381;BME280;53177;52.648;1.214;2023-04-23T10:39:33;99576.13;;;14.62;67.18
66381;BME280;53177;52.648;1.214;2023-04-23T10:42:00;99566.84;;;14.69;65.74
66381;BME280;53177;52.648;1.214;2023-04-23T10:44:36;99558.19;;;14.34;65.97
66381;BME280;53177;52.648;1.214;2023-04-23T10:47:02;99569.59;;;14.21;66.84
66381;BME280;53177;52.648;1.214;2023-04-23T10:49:33;99558.22;;;13.86;65.55
66381;BME280;53177;52.648;1.214;2023-04-23T10:54:35;99552.31;;;14.75;65.52
66381;BME280;53177;52.648;1.214;2023-04-23T10:57:05;99550.16;;;14.81;63.64
66381;BME280;53177;52.648;1.214;2023-04-23T10:59:32;99549.44;;;14.32;63.65
66381;BME280;53177;52.648;1.214;2023-04-23T11:02:06;99553.97;;;14.61;63.23
66381;BME280;53177;52.648;1.214;2023-04-23T11:04:33;99549.97;;;14.84;59.22
66381;BME280;53177;52.648;1.214;2023-04-23T11:07:06;99543.31;;;14.77;60.35
66381;BME280;53177;52.648;1.214;2023-04-23T11:09:35;99544.16;;;14.78;62.40
66381;BME280;53177;52.648;1.214;2023-04-23T11:12:03;99542.97;;;14.97;62.40
66381;BME280;53177;52.648;1.214;2023-04-23T11:14:49;99540.75;;;15.20;60.86
66381;BME280;53177;52.648;1.214;2023-04-23T11:17:16;99534.75;;;15.16;60.37
66381;BME280;53177;52.648;1.214;2023-04-23T11:20:12;99533.81;;;14.87;59.84
66381;BME280;53177;52.648;1.214;2023-04-23T11:22:42;99532.00;;;15.18;61.60
66381;BME280;53177;52.648;1.214;2023-04-23T11:25:09;99526.03;;;15.42;59.95
66381;BME280;53177;52.648;1.214;2023-04-23T11:27:38;99528.69;;;15.28;60.97
66381;BME280;53177;52.648;1.214;2023-04-23T11:30:09;99523.69;;;15.66;59.38
66381;BME280;53177;52.648;1.214;2023-04-23T11:32:36;99517.19;;;15.98;60.51
66381;BME280;53177;52.648;1.214;2023-04-23T11:35:01;99517.00;;;15.87;58.78
66381;BME280;53177;52.648;1.214;2023-04-23T11:37:29;99513.56;;;16.26;57.81
66381;BME280;53177;52.648;1.214;2023-04-23T11:39:55;99517.09;;;15.86;58.72
66381;BME280;53177;52.648;1.214;2023-04-23T11:42:20;99511.69;;;15.73;59.64
66381;BME280;53177;52.648;1.214;2023-04-23T11:44:46;99513.28;;;16.31;58.77
66381;BME280;53177;52.648;1.214;2023-04-23T11:47:14;99509.13;;;16.13;58.03
66381;BME280;53177;52.648;1.214;2023-04-23T11:49:41;99523.38;;;15.42;59.09
66381;BME280;53177;52.648;1.214;2023-04-23T11:52:08;99513.91;;;15.08;59.82
66381;BME280;53177;52.648;1.214;2023-04-23T11:54:33;99516.53;;;14.94;61.62
66381;BME280;53177;52.648;1.214;2023-04-23T11:56:59;99519.53;;;14.74;62.56
66381;BME280;53177;52.648;1.214;2023-04-23T11:59:26;99522.13;;;14.60;62.71
66381;BME280;53177;52.648;1.214;2023-04-23T12:01:54;99517.97;;;14.40;63.78
66381;BME280;53177;52.648;1.214;2023-04-23T12:04:22;99523.47;;;14.22;63.08
66381;BME280;53177;52.648;1.214;2023-04-23T12:06:49;99517.88;;;14.10;65.68
66381;BME280;53177;52.648;1.214;2023-04-23T12:09:16;99519.84;;;13.91;67.71
66381;BME280;53177;52.648;1.214;2023-04-23T12:11:43;99525.34;;;14.04;73.18
66381;BME280;53177;52.648;1.214;2023-04-23T12:14:11;99522.84;;;14.01;72.17
66381;BME280;53177;52.648;1.214;2023-04-23T12:16:38;99522.66;;;13.73;73.20
66381;BME280;53177;52.648;1.214;2023-04-23T12:19:07;99525.25;;;13.74;75.64
66381;BME280;53177;52.648;1.214;2023-04-23T12:21:32;99511.00;;;13.91;72.97
66381;BME280;53177;52.648;1.214;2023-04-23T12:23:58;99514.97;;;13.99;73.91
66381;BME280;53177;52.648;1.214;2023-04-23T12:26:27;99510.22;;;14.04;73.04
66381;BME280;53177;52.648;1.214;2023-04-23T12:28:55;99504.94;;;13.89;71.77
66381;BME280;53177;52.648;1.214;2023-04-23T12:31:27;99512.28;;;13.84;73.02
66381;BME280;53177;52.648;1.214;2023-04-23T12:34:06;99501.75;;;13.82;72.28
66381;BME280;53177;52.648;1.214;2023-04-23T12:36:35;99504.53;;;13.63;70.79
66381;BME280;53177;52.648;1.214;2023-04-23T12:42:17;99487.75;;;13.79;68.09
66381;BME280;53177;52.648;1.214;2023-04-23T12:44:43;99484.69;;;13.86;67.31
66381;BME280;53177;52.648;1.214;2023-04-23T12:47:09;99489.66;;;14.08;66.47
66381;BME280;53177;52.648;1.214;2023-04-23T12:49:39;99485.59;;;14.32;68.99
66381;BME280;53177;52.648;1.214;2023-04-23T12:52:06;99484.53;;;14.36;65.07
66381;BME280;53177;52.648;1.214;2023-04-23T12:54:36;99487.22;;;14.50;65.99
66381;BME280;53177;52.648;1.214;2023-04-23T12:57:02;99491.44;;;14.54;66.06
66381;BME280;53177;52.648;1.214;2023-04-23T12:59:29;99485.47;;;14.65;65.97
66381;BME280;53177;52.648;1.214;2023-04-23T13:01:55;99491.50;;;14.53;62.37
66381;BME280;53177;52.648;1.214;2023-04-23T13:04:21;99491.81;;;14.48;65.35
66381;BME280;53177;52.648;1.214;2023-04-23T13:06:47;99497.44;;;14.42;66.51